sensor_id;sensor_type;location;lat;lon;timestamp;temperature;humidity
57390;DHT22;43217;52.694;6.214;2023-01-10T00:01:07;5.60;99.90
57390;DHT22;43217;52.694;6.214;2023-01-10T00:03:33;5.60;99.90
57390;DHT22;43217;52.694;6.214;2023-01-10T00:05:58;5.60;99.90
57390;DHT22;43217;52.694;6.214;2023-01-10T00:08:24;5.60;99.90
57390;DHT22;43217;52.694;6.214;2023-01-10T00:10:49;5.60;99.90
57390;DHT22;43217;52.694;6.214;2023-01-10T00:13:16;5.70;99.90
57390;DHT22;43217;52.694;6.214;2023-01-10T00:15:52;5.70;99.90
57390;DHT22;43217;52.694;6.214;2023-01-10T00:18:18;5.80;99.90
57390;DHT22;43217;52.694;6.214;2023-01-10T00:20:46;5.80;99.90
57390;DHT22;43217;52.694;6.214;2023-01-10T00:23:12;5.90;99.90
57390;DHT22;43217;52.694;6.214;2023-01-10T00:25:38;5.90;99.90
57390;DHT22;43217;52.694;6.214;2023-01-10T00:28:04;5.90;99.90
57390;DHT22;43217;52.694;6.214;2023-01-10T00:30:49;6.00;99.90
57390;DHT22;43217;52.694;6.214;2023-01-10T00:33:47;6.00;99.90
57390;DHT22;43217;52.694;6.214;2023-01-10T00:36:13;6.00;99.90
57390;DHT22;43217;52.694;6.214;2023-01-10T00:38:38;6.00;99.90
57390;DHT22;43217;52.694;6.214;2023-01-10T00:41:04;6.00;99.90
57390;DHT22;43217;52.694;6.214;2023-01-10T00:43:52;6.00;99.90
57390;DHT22;43217;52.694;6.214;2023-01-10T00:46:21;6.00;99.90
57390;DHT22;43217;52.694;6.214;2023-01-10T00:48:47;6.00;99.90
57390;DHT22;43217;52.694;6.214;2023-01-10T00:51:12;6.00;99.90
57390;DHT22;43217;52.694;6.214;2023-01-10T00:53:38;6.00;99.90
57390;DHT22;43217;52.694;6.214;2023-01-10T00:56:03;6.00;99.90
57390;DHT22;43217;52.694;6.214;2023-01-10T00:58:29;6.00;99.90
57390;DHT22;43217;52.694;6.214;2023-01-10T01:00:55;6.00;99.90
57390;DHT22;43217;52.694;6.214;2023-01-10T01:03:21;5.90;99.90
57390;DHT22;43217;52.694;6.214;2023-01-10T01:05:47;5.90;99.90
57390;DHT22;43217;52.694;6.214;2023-01-10T01:08:14;5.90;99.90
57390;DHT22;43217;52.694;6.214;2023-01-10T01:10:40;5.80;99.90
57390;DHT22;43217;52.694;6.214;2023-01-10T01:13:14;5.80;99.90
57390;DHT22;43217;52.694;6.214;2023-01-10T01:15:41;5.80;99.90
57390;DHT22;43217;52.694;6.214;2023-01-10T01:18:08;5.80;99.90
57390;DHT22;43217;52.694;6.214;2023-01-10T01:20:34;5.80;99.90
57390;DHT22;43217;52.694;6.214;2023-01-10T01:23:00;5.80;99.90
57390;DHT22;43217;52.694;6.214;2023-01-10T01:25:26;5.80;99.90
57390;DHT22;43217;52.694;6.214;2023-01-10T01:27:51;5.90;99.90
57390;DHT22;43217;52.694;6.214;2023-01-10T01:30:17;5.90;99.90
57390;DHT22;43217;52.694;6.214;2023-01-10T01:32:42;5.80;99.90
57390;DHT22;43217;52.694;6.214;2023-01-10T01:35:13;5.80;99.90
57390;DHT22;43217;52.694;6.214;2023-01-10T01:37:39;5.80;99.90
57390;DHT22;43217;52.694;6.214;2023-01-10T01:40:06;5.90;99.90
57390;DHT22;43217;52.694;6.214;2023-01-10T01:42:33;5.90;99.90
57390;DHT22;43217;52.694;6.214;2023-01-10T01:47:51;5.90;99.90
57390;DHT22;43217;52.694;6.214;2023-01-10T01:52:46;5.90;99.90
57390;DHT22;43217;52.694;6.214;2023-01-10T01:55:13;5.90;99.90
57390;DHT22;43217;52.694;6.214;2023-01-10T01:57:38;5.80;99.90
57390;DHT22;43217;52.694;6.214;2023-01-10T02:00:05;5.80;99.90
57390;DHT22;43217;52.694;6.214;2023-01-10T02:02:32;5.80;99.90
57390;DHT22;43217;52.694;6.214;2023-01-10T02:05:03;5.80;99.90
57390;DHT22;43217;52.694;6.214;2023-01-10T02:07:36;5.80;99.90
57390;DHT22;43217;52.694;6.214;2023-01-10T02:10:16;5.80;99.90
57390;DHT22;43217;52.694;6.214;2023-01-10T02:12:45;5.80;99.90
57390;DHT22;43217;52.694;6.214;2023-01-10T02:15:12;5.80;99.90
57390;DHT22;43217;52.694;6.214;2023-01-10T02:17:39;5.70;99.90
57390;DHT22;43217;52.694;6.214;2023-01-10T02:20:10;5.70;99.90
57390;DHT22;43217;52.694;6.214;2023-01-10T02:23:12;5.70;99.90
57390;DHT22;43217;52.694;6.214;2023-01-10T02:32:08;5.70;99.90
57390;DHT22;43217;52.694;6.214;2023-01-10T02:45:31;5.80;99.90
57390;DHT22;43217;52.694;6.214;2023-01-10T02:47:58;5.80;99.90
57390;DHT22;43217;52.694;6.214;2023-01-10T02:53:15;5.80;99.90
57390;DHT22;43217;52.694;6.214;2023-01-10T02:58:38;5.80;99.90
57390;DHT22;43217;52.694;6.214;2023-01-10T03:01:15;5.80;99.90
57390;DHT22;43217;52.694;6.214;2023-01-10T03:03:49;5.80;99.90
57390;DHT22;43217;52.694;6.214;2023-01-10T03:06:27;5.80;99.90
57390;DHT22;43217;52.694;6.214;2023-01-10T03:09:06;5.80;99.90
57390;DHT22;43217;52.694;6.214;2023-01-10T03:11:36;5.80;99.90
57390;DHT22;43217;52.694;6.214;2023-01-10T03:14:23;5.80;99.90
57390;DHT22;43217;52.694;6.214;2023-01-10T03:16:57;5.80;99.90
57390;DHT22;43217;52.694;6.214;2023-01-10T03:19:27;5.90;99.90
57390;DHT22;43217;52.694;6.214;2023-01-10T03:21:56;5.90;99.90
57390;DHT22;43217;52.694;6.214;2023-01-10T03:24:30;5.90;99.90
57390;DHT22;43217;52.694;6.214;2023-01-10T03:27:02;6.00;99.90
57390;DHT22;43217;52.694;6.214;2023-01-10T03:29:39;6.00;99.90
57390;DHT22;43217;52.694;6.214;2023-01-10T03:32:09;6.00;99.90
57390;DHT22;43217;52.694;6.214;2023-01-10T03:34:37;6.00;99.90
57390;DHT22;43217;52.694;6.214;2023-01-10T03:37:15;6.00;99.90
57390;DHT22;43217;52.694;6.214;2023-01-10T03:39:50;6.00;99.90
57390;DHT22;43217;52.694;6.214;2023-01-10T03:42:28;6.00;99.90
57390;DHT22;43217;52.694;6.214;2023-01-10T03:45:15;6.00;99.90
57390;DHT22;43217;52.694;6.214;2023-01-10T03:47:44;6.00;99.90
57390;DHT22;43217;52.694;6.214;2023-01-10T03:50:19;6.00;99.90
57390;DHT22;43217;52.694;6.214;2023-01-10T03:52:45;6.00;99.90
57390;DHT22;43217;52.694;6.214;2023-01-10T03:55:13;6.10;99.90
57390;DHT22;43217;52.694;6.214;2023-01-10T03:57:41;6.10;99.90
57390;DHT22;43217;52.694;6.214;2023-01-10T04:00:08;6.10;99.90
57390;DHT22;43217;52.694;6.214;2023-01-10T04:02:33;6.10;99.90
57390;DHT22;43217;52.694;6.214;2023-01-10T04:04:59;6.10;99.90
57390;DHT22;43217;52.694;6.214;2023-01-10T04:07:25;6.10;99.90
57390;DHT22;43217;52.694;6.214;2023-01-10T04:09:51;6.10;99.90
57390;DHT22;43217;52.694;6.214;2023-01-10T04:12:17;6.10;99.90
57390;DHT22;43217;52.694;6.214;2023-01-10T04:14:43;6.10;99.90
57390;DHT22;43217;52.694;6.214;2023-01-10T04:17:12;6.10;99.90
57390;DHT22;43217;52.694;6.214;2023-01-10T04:19:38;6.10;99.90
57390;DHT22;43217;52.694;6.214;2023-01-10T04:22:03;6.10;99.90
57390;DHT22;43217;52.694;6.214;2023-01-10T04:24:30;6.10;99.90
57390;DHT22;43217;52.694;6.214;2023-01-10T04:26:56;6.00;99.90
57390;DHT22;43217;52.694;6.214;2023-01-10T04:29:22;6.10;99.90
57390;DHT22;43217;52.694;6.214;2023-01-10T04:31:48;6.00;99.90
57390;DHT22;43217;52.694;6.214;2023-01-10T04:34:14;6.10;99.90
57390;DHT22;43217;52.694;6.214;2023-01-10T04:36:40;6.00;99.90
57390;DHT22;43217;52.694;6.214;2023-01-10T04:39:06;6.00;99.90
57390;DHT22;43217;52.694;6.214;2023-01-10T04:41:32;6.00;99.90
57390;DHT22;43217;52.694;6.214;2023-01-10T04:43:57;6.10;99.90
57390;DHT22;43217;52.694;6.214;2023-01-10T04:46:23;6.00;99.90
57390;DHT22;43217;52.694;6.214;2023-01-10T04:48:48;6.10;99.90
57390;DHT22;43217;52.694;6.214;2023-01-10T04:51:14;6.10;99.90
57390;DHT22;43217;52.694;6.214;2023-01-10T04:53:40;6.10;99.90
57390;DHT22;43217;52.694;6.214;2023-01-10T04:56:07;6.00;99.90
57390;DHT22;43217;52.694;6.214;2023-01-10T04:58:34;6.00;99.90
57390;DHT22;43217;52.694;6.214;2023-01-10T05:01:07;6.00;99.90
57390;DHT22;43217;52.694;6.214;2023-01-10T05:03:33;6.00;99.90
57390;DHT22;43217;52.694;6.214;2023-01-10T05:05:58;6.00;99.90
57390;DHT22;43217;52.694;6.214;2023-01-10T05:08:24;6.00;99.90
57390;DHT22;43217;52.694;6.214;2023-01-10T05:10:50;6.10;99.90
57390;DHT22;43217;52.694;6.214;2023-01-10T05:13:15;6.00;99.90
57390;DHT22;43217;52.694;6.214;2023-01-10T05:15:41;6.00;99.90
57390;DHT22;43217;52.694;6.214;2023-01-10T05:18:06;6.00;99.90
57390;DHT22;43217;52.694;6.214;2023-01-10T05:20:32;5.90;99.90
57390;DHT22;43217;52.694;6.214;2023-01-10T05:22:58;5.90;99.90
57390;DHT22;43217;52.694;6.214;2023-01-10T05:25:23;5.90;99.90
57390;DHT22;43217;52.694;6.214;2023-01-10T05:27:49;5.90;99.90
57390;DHT22;43217;52.694;6.214;2023-01-10T05:30:14;6.00;99.90
57390;DHT22;43217;52.694;6.214;2023-01-10T05:32:40;5.90;99.90
57390;DHT22;43217;52.694;6.214;2023-01-10T05:35:06;5.90;99.90
57390;DHT22;43217;52.694;6.214;2023-01-10T05:37:32;5.90;99.90
57390;DHT22;43217;52.694;6.214;2023-01-10T05:39:57;5.90;99.90
57390;DHT22;43217;52.694;6.214;2023-01-10T05:42:23;5.80;99.90
57390;DHT22;43217;52.694;6.214;2023-01-10T05:44:48;5.80;99.90
57390;DHT22;43217;52.694;6.214;2023-01-10T05:47:14;5.80;99.90
57390;DHT22;43217;52.694;6.214;2023-01-10T05:49:40;5.70;99.90
57390;DHT22;43217;52.694;6.214;2023-01-10T05:52:08;5.70;99.90
57390;DHT22;43217;52.694;6.214;2023-01-10T05:54:34;5.60;99.90
57390;DHT22;43217;52.694;6.214;2023-01-10T05:56:59;5.60;99.90
57390;DHT22;43217;52.694;6.214;2023-01-10T05:59:25;5.60;99.90
57390;DHT22;43217;52.694;6.214;2023-01-10T06:01:50;5.50;99.90
57390;DHT22;43217;52.694;6.214;2023-01-10T06:04:16;5.50;99.90
57390;DHT22;43217;52.694;6.214;2023-01-10T06:06:42;5.40;99.90
57390;DHT22;43217;52.694;6.214;2023-01-10T06:09:07;5.40;99.90
57390;DHT22;43217;52.694;6.214;2023-01-10T06:11:33;5.40;99.90
57390;DHT22;43217;52.694;6.214;2023-01-10T06:14:01;5.40;99.90
57390;DHT22;43217;52.694;6.214;2023-01-10T06:16:27;5.30;99.90
57390;DHT22;43217;52.694;6.214;2023-01-10T06:18:53;5.30;99.90
57390;DHT22;43217;52.694;6.214;2023-01-10T06:21:19;5.30;99.90
57390;DHT22;43217;52.694;6.214;2023-01-10T06:23:45;5.30;99.90
57390;DHT22;43217;52.694;6.214;2023-01-10T06:26:10;5.30;99.90
57390;DHT22;43217;52.694;6.214;2023-01-10T06:28:36;5.30;99.90
57390;DHT22;43217;52.694;6.214;2023-01-10T06:31:02;5.30;99.90
57390;DHT22;43217;52.694;6.214;2023-01-10T06:33:27;5.30;99.90
57390;DHT22;43217;52.694;6.214;2023-01-10T06:35:53;5.30;99.90
57390;DHT22;43217;52.694;6.214;2023-01-10T06:38:18;5.30;99.90
57390;DHT22;43217;52.694;6.214;2023-01-10T06:40:44;5.30;99.90
57390;DHT22;43217;52.694;6.214;2023-01-10T06:43:10;5.30;99.90
57390;DHT22;43217;52.694;6.214;2023-01-10T06:45:36;5.30;99.90
57390;DHT22;43217;52.694;6.214;2023-01-10T06:48:01;5.30;99.90
57390;DHT22;43217;52.694;6.214;2023-01-10T06:50:27;5.30;99.90
57390;DHT22;43217;52.694;6.214;2023-01-10T06:52:58;5.20;99.90
57390;DHT22;43217;52.694;6.214;2023-01-10T06:55:24;5.30;99.90
57390;DHT22;43217;52.694;6.214;2023-01-10T06:57:58;5.30;99.90
57390;DHT22;43217;52.694;6.214;2023-01-10T07:00:24;5.30;99.90
57390;DHT22;43217;52.694;6.214;2023-01-10T07:02:52;5.40;99.90
57390;DHT22;43217;52.694;6.214;2023-01-10T07:05:19;5.40;99.90
57390;DHT22;43217;52.694;6.214;2023-01-10T07:07:44;5.40;99.90
57390;DHT22;43217;52.694;6.214;2023-01-10T07:10:10;5.40;99.90
57390;DHT22;43217;52.694;6.214;2023-01-10T07:12:36;5.50;99.90
57390;DHT22;43217;52.694;6.214;2023-01-10T07:15:02;5.50;99.90
57390;DHT22;43217;52.694;6.214;2023-01-10T07:17:29;5.50;99.90
57390;DHT22;43217;52.694;6.214;2023-01-10T07:19:55;5.50;99.90
57390;DHT22;43217;52.694;6.214;2023-01-10T07:22:20;5.40;99.90
57390;DHT22;43217;52.694;6.214;2023-01-10T07:24:46;5.40;99.90
57390;DHT22;43217;52.694;6.214;2023-01-10T07:27:12;5.50;99.90
57390;DHT22;43217;52.694;6.214;2023-01-10T07:29:37;5.50;99.90
57390;DHT22;43217;52.694;6.214;2023-01-10T07:32:03;5.50;99.90
57390;DHT22;43217;52.694;6.214;2023-01-10T07:34:29;5.50;99.90
57390;DHT22;43217;52.694;6.214;2023-01-10T07:36:54;5.50;99.90
57390;DHT22;43217;52.694;6.214;2023-01-10T07:39:20;5.50;99.90
57390;DHT22;43217;52.694;6.214;2023-01-10T07:41:46;5.40;99.90
57390;DHT22;43217;52.694;6.214;2023-01-10T07:44:13;5.40;99.90
57390;DHT22;43217;52.694;6.214;2023-01-10T07:46:38;5.40;99.90
57390;DHT22;43217;52.694;6.214;2023-01-10T07:49:04;5.40;99.90
57390;DHT22;43217;52.694;6.214;2023-01-10T07:51:30;5.40;99.90
57390;DHT22;43217;52.694;6.214;2023-01-10T07:53:56;5.30;99.90
57390;DHT22;43217;52.694;6.214;2023-01-10T07:56:22;5.30;99.90
57390;DHT22;43217;52.694;6.214;2023-01-10T07:58:47;5.30;99.90
57390;DHT22;43217;52.694;6.214;2023-01-10T08:01:13;5.30;99.90
57390;DHT22;43217;52.694;6.214;2023-01-10T08:03:39;5.20;99.90
57390;DHT22;43217;52.694;6.214;2023-01-10T08:06:07;5.20;99.90
57390;DHT22;43217;52.694;6.214;2023-01-10T08:08:35;5.20;99.90
57390;DHT22;43217;52.694;6.214;2023-01-10T08:11:01;5.20;99.90
57390;DHT22;43217;52.694;6.214;2023-01-10T08:13:28;5.20;99.90
57390;DHT22;43217;52.694;6.214;2023-01-10T08:15:54;5.20;99.90
57390;DHT22;43217;52.694;6.214;2023-01-10T08:18:20;5.30;99.90
57390;DHT22;43217;52.694;6.214;2023-01-10T08:20:51;5.30;99.90
57390;DHT22;43217;52.694;6.214;2023-01-10T08:23:18;5.40;99.90
57390;DHT22;43217;52.694;6.214;2023-01-10T08:25:44;5.40;99.90
57390;DHT22;43217;52.694;6.214;2023-01-10T08:28:10;5.50;99.90
57390;DHT22;43217;52.694;6.214;2023-01-10T08:30:36;5.50;99.90
57390;DHT22;43217;52.694;6.214;2023-01-10T08:33:03;5.60;99.90
57390;DHT22;43217;52.694;6.214;2023-01-10T08:35:29;5.60;99.90
57390;DHT22;43217;52.694;6.214;2023-01-10T08:37:59;5.70;99.90
57390;DHT22;43217;52.694;6.214;2023-01-10T08:40:25;5.70;99.90
57390;DHT22;43217;52.694;6.214;2023-01-10T08:43:02;5.70;99.90
57390;DHT22;43217;52.694;6.214;2023-01-10T08:45:28;5.80;99.90
57390;DHT22;43217;52.694;6.214;2023-01-10T08:47:54;5.90;99.90
57390;DHT22;43217;52.694;6.214;2023-01-10T08:50:20;5.90;99.90
57390;DHT22;43217;52.694;6.214;2023-01-10T08:52:46;6.00;99.90
57390;DHT22;43217;52.694;6.214;2023-01-10T08:55:12;6.00;99.90
57390;DHT22;43217;52.694;6.214;2023-01-10T08:57:37;6.00;99.90
57390;DHT22;43217;52.694;6.214;2023-01-10T09:00:03;6.10;99.90
57390;DHT22;43217;52.694;6.214;2023-01-10T09:02:30;6.10;99.90
57390;DHT22;43217;52.694;6.214;2023-01-10T09:04:55;6.10;99.90
57390;DHT22;43217;52.694;6.214;2023-01-10T09:07:21;6.20;99.90
57390;DHT22;43217;52.694;6.214;2023-01-10T09:09:46;6.20;99.90
57390;DHT22;43217;52.694;6.214;2023-01-10T09:12:12;6.30;99.90
57390;DHT22;43217;52.694;6.214;2023-01-10T09:14:56;6.30;99.90
57390;DHT22;43217;52.694;6.214;2023-01-10T09:17:22;6.30;99.90
57390;DHT22;43217;52.694;6.214;2023-01-10T09:19:48;6.40;99.90
57390;DHT22;43217;52.694;6.214;2023-01-10T09:22:14;6.40;99.90
57390;DHT22;43217;52.694;6.214;2023-01-10T09:24:40;6.50;99.90
57390;DHT22;43217;52.694;6.214;2023-01-10T09:27:09;6.50;99.90
57390;DHT22;43217;52.694;6.214;2023-01-10T09:29:34;6.60;99.90
57390;DHT22;43217;52.694;6.214;2023-01-10T09:32:00;6.60;99.90
57390;DHT22;43217;52.694;6.214;2023-01-10T09:34:25;6.70;99.90
57390;DHT22;43217;52.694;6.214;2023-01-10T09:36:52;6.70;99.90
57390;DHT22;43217;52.694;6.214;2023-01-10T09:39:18;6.70;99.90
57390;DHT22;43217;52.694;6.214;2023-01-10T09:44:58;6.80;99.90
57390;DHT22;43217;52.694;6.214;2023-01-10T09:47:28;6.80;99.90
57390;DHT22;43217;52.694;6.214;2023-01-10T09:50:11;6.80;99.90
57390;DHT22;43217;52.694;6.214;2023-01-10T09:52:43;6.80;99.90
57390;DHT22;43217;52.694;6.214;2023-01-10T09:55:27;6.80;99.90
57390;DHT22;43217;52.694;6.214;2023-01-10T09:57:57;6.90;99.90
57390;DHT22;43217;52.694;6.214;2023-01-10T10:00:37;6.90;99.90
57390;DHT22;43217;52.694;6.214;2023-01-10T10:03:13;6.90;99.90
57390;DHT22;43217;52.694;6.214;2023-01-10T10:05:40;6.90;99.90
57390;DHT22;43217;52.694;6.214;2023-01-10T10:08:14;6.90;99.90
57390;DHT22;43217;52.694;6.214;2023-01-10T10:24:29;6.90;99.90
57390;DHT22;43217;52.694;6.214;2023-01-10T10:30:21;6.90;99.90
57390;DHT22;43217;52.694;6.214;2023-01-10T10:33:12;6.90;99.90
57390;DHT22;43217;52.694;6.214;2023-01-10T10:35:52;6.90;99.90
57390;DHT22;43217;52.694;6.214;2023-01-10T10:38:26;6.90;99.90
57390;DHT22;43217;52.694;6.214;2023-01-10T10:40:55;6.90;99.90
57390;DHT22;43217;52.694;6.214;2023-01-10T10:43:29;6.90;99.90
57390;DHT22;43217;52.694;6.214;2023-01-10T10:46:09;6.90;99.90
57390;DHT22;43217;52.694;6.214;2023-01-10T10:49:05;6.90;99.90
57390;DHT22;43217;52.694;6.214;2023-01-10T10:51:44;6.90;99.90
57390;DHT22;43217;52.694;6.214;2023-01-10T10:54:12;6.90;99.90
57390;DHT22;43217;52.694;6.214;2023-01-10T10:56:40;6.90;99.90
57390;DHT22;43217;52.694;6.214;2023-01-10T10:59:06;6.90;99.90
57390;DHT22;43217;52.694;6.214;2023-01-10T11:01:31;6.90;99.90
57390;DHT22;43217;52.694;6.214;2023-01-10T11:04:00;6.90;99.90
57390;DHT22;43217;52.694;6.214;2023-01-10T11:06:29;6.90;99.90
57390;DHT22;43217;52.694;6.214;2023-01-10T11:08:57;6.90;99.90
57390;DHT22;43217;52.694;6.214;2023-01-10T11:11:28;6.90;99.90
57390;DHT22;43217;52.694;6.214;2023-01-10T11:14:00;6.90;99.90
57390;DHT22;43217;52.694;6.214;2023-01-10T11:16:30;6.90;99.90
57390;DHT22;43217;52.694;6.214;2023-01-10T11:19:25;6.90;99.90
57390;DHT22;43217;52.694;6.214;2023-01-10T11:22:02;6.80;99.90
57390;DHT22;43217;52.694;6.214;2023-01-10T11:24:42;6.80;99.90
57390;DHT22;43217;52.694;6.214;2023-01-10T11:27:20;6.80;99.90
57390;DHT22;43217;52.694;6.214;2023-01-10T11:29:52;6.80;99.90
57390;DHT22;43217;52.694;6.214;2023-01-10T11:32:27;6.80;99.90
57390;DHT22;43217;52.694;6.214;2023-01-10T11:34:58;6.80;99.90
57390;DHT22;43217;52.694;6.214;2023-01-10T11:37:31;6.80;99.90
57390;DHT22;43217;52.694;6.214;2023-01-10T11:40:20;6.80;99.90
57390;DHT22;43217;52.694;6.214;2023-01-10T11:42:48;6.80;99.90
57390;DHT22;43217;52.694;6.214;2023-01-10T11:50:30;6.80;99.90
57390;DHT22;43217;52.694;6.214;2023-01-10T11:52:57;6.80;99.90
57390;DHT22;43217;52.694;6.214;2023-01-10T11:55:28;6.80;99.90
57390;DHT22;43217;52.694;6.214;2023-01-10T11:58:14;6.80;99.90
57390;DHT22;43217;52.694;6.214;2023-01-10T12:00:42;6.70;99.90
57390;DHT22;43217;52.694;6.214;2023-01-10T12:03:28;6.70;99.90
57390;DHT22;43217;52.694;6.214;2023-01-10T12:06:03;6.70;99.90
57390;DHT22;43217;52.694;6.214;2023-01-10T12:08:32;6.70;99.90
57390;DHT22;43217;52.694;6.214;2023-01-10T12:11:02;6.70;99.90
57390;DHT22;43217;52.694;6.214;2023-01-10T12:13:41;6.60;99.90
57390;DHT22;43217;52.694;6.214;2023-01-10T12:16:26;6.70;99.90
57390;DHT22;43217;52.694;6.214;2023-01-10T12:18:55;6.70;99.90
57390;DHT22;43217;52.694;6.214;2023-01-10T12:21:37;6.70;99.90
57390;DHT22;43217;52.694;6.214;2023-01-10T12:24:14;6.70;99.90
57390;DHT22;43217;52.694;6.214;2023-01-10T12:26:41;6.60;99.90
57390;DHT22;43217;52.694;6.214;2023-01-10T12:29:27;6.60;99.90
57390;DHT22;43217;52.694;6.214;2023-01-10T12:31:55;6.60;99.90
57390;DHT22;43217;52.694;6.214;2023-01-10T12:34:34;6.60;99.90
57390;DHT22;43217;52.694;6.214;2023-01-10T12:43:17;6.60;99.90
57390;DHT22;43217;52.694;6.214;2023-01-10T12:46:37;6.60;99.90
57390;DHT22;43217;52.694;6.214;2023-01-10T12:49:06;6.60;99.90
57390;DHT22;43217;52.694;6.214;2023-01-10T12:51:33;6.50;99.90
57390;DHT22;43217;52.694;6.214;2023-01-10T12:54:04;6.50;99.90
57390;DHT22;43217;52.694;6.214;2023-01-10T12:56:34;6.60;99.90
57390;DHT22;43217;52.694;6.214;2023-01-10T12:59:03;6.50;99.90
57390;DHT22;43217;52.694;6.214;2023-01-10T13:01:33;6.50;99.90
57390;DHT22;43217;52.694;6.214;2023-01-10T13:04:06;6.50;99.90
57390;DHT22;43217;52.694;6.214;2023-01-10T13:06:36;6.50;99.90
57390;DHT22;43217;52.694;6.214;2023-01-10T13:09:38;6.50;99.90
57390;DHT22;43217;52.694;6.214;2023-01-10T13:12:08;6.50;99.90
57390;DHT22;43217;52.694;6.214;2023-01-10T13:15:17;6.50;99.90
57390;DHT22;43217;52.694;6.214;2023-01-10T13:17:46;6.50;99.90
57390;DHT22;43217;52.694;6.214;2023-01-10T13:22:45;6.50;99.90
57390;DHT22;43217;52.694;6.214;2023-01-10T13:25:30;6.40;99.90
57390;DHT22;43217;52.694;6.214;2023-01-10T13:28:24;6.50;99.90
57390;DHT22;43217;52.694;6.214;2023-01-10T13:30:57;6.50;99.90
57390;DHT22;43217;52.694;6.214;2023-01-10T13:33:30;6.40;99.90
57390;DHT22;43217;52.694;6.214;2023-01-10T13:40:16;6.40;99.90
57390;DHT22;43217;52.694;6.214;2023-01-10T13:42:09;6.50;99.90
57390;DHT22;43217;52.694;6.214;2023-01-10T13:55:32;6.50;99.90
57390;DHT22;43217;52.694;6.214;2023-01-10T14:01:54;6.50;99.90
57390;DHT22;43217;52.694;6.214;2023-01-10T14:04:39;6.50;99.90
57390;DHT22;43217;52.694;6.214;2023-01-10T14:07:22;6.50;99.90
57390;DHT22;43217;52.694;6.214;2023-01-10T14:09:50;6.50;99.90
57390;DHT22;43217;52.694;6.214;2023-01-10T14:12:37;6.50;99.90
57390;DHT22;43217;52.694;6.214;2023-01-10T14:15:22;6.50;99.90
57390;DHT22;43217;52.694;6.214;2023-01-10T14:18:25;6.50;99.90
57390;DHT22;43217;52.694;6.214;2023-01-10T14:21:03;6.50;99.90
57390;DHT22;43217;52.694;6.214;2023-01-10T14:23:35;6.50;99.90
57390;DHT22;43217;52.694;6.214;2023-01-10T14:26:02;6.50;99.90
57390;DHT22;43217;52.694;6.214;2023-01-10T14:28:30;6.60;99.90
57390;DHT22;43217;52.694;6.214;2023-01-10T14:31:07;6.60;99.90
57390;DHT22;43217;52.694;6.214;2023-01-10T14:33:35;6.60;99.90
57390;DHT22;43217;52.694;6.214;2023-01-10T14:36:08;6.60;99.90
57390;DHT22;43217;52.694;6.214;2023-01-10T14:38:38;6.60;99.90
57390;DHT22;43217;52.694;6.214;2023-01-10T14:41:17;6.60;99.90
57390;DHT22;43217;52.694;6.214;2023-01-10T14:43:56;6.60;99.90
57390;DHT22;43217;52.694;6.214;2023-01-10T14:46:43;6.60;99.90
57390;DHT22;43217;52.694;6.214;2023-01-10T14:49:33;6.60;99.90
57390;DHT22;43217;52.694;6.214;2023-01-10T14:54:41;6.60;99.90
57390;DHT22;43217;52.694;6.214;2023-01-10T14:57:21;6.60;99.90
57390;DHT22;43217;52.694;6.214;2023-01-10T14:59:48;6.70;99.90
57390;DHT22;43217;52.694;6.214;2023-01-10T15:02:24;6.70;99.90
57390;DHT22;43217;52.694;6.214;2023-01-10T15:07:19;6.70;99.90
57390;DHT22;43217;52.694;6.214;2023-01-10T15:09:48;6.80;99.90
57390;DHT22;43217;52.694;6.214;2023-01-10T15:12:14;6.80;99.90
57390;DHT22;43217;52.694;6.214;2023-01-10T15:14:41;6.80;99.90
57390;DHT22;43217;52.694;6.214;2023-01-10T15:17:12;6.80;99.90
57390;DHT22;43217;52.694;6.214;2023-01-10T15:19:43;6.80;99.90
57390;DHT22;43217;52.694;6.214;2023-01-10T15:22:35;6.80;99.90
57390;DHT22;43217;52.694;6.214;2023-01-10T15:25:34;6.90;99.90
57390;DHT22;43217;52.694;6.214;2023-01-10T15:28:04;6.90;99.90
57390;DHT22;43217;52.694;6.214;2023-01-10T15:30:37;6.90;99.90
57390;DHT22;43217;52.694;6.214;2023-01-10T15:33:14;6.90;99.90
57390;DHT22;43217;52.694;6.214;2023-01-10T15:35:40;6.90;99.90
57390;DHT22;43217;52.694;6.214;2023-01-10T15:38:15;6.90;99.90
57390;DHT22;43217;52.694;6.214;2023-01-10T15:40:42;6.90;99.90
57390;DHT22;43217;52.694;6.214;2023-01-10T15:45:43;6.80;99.90
57390;DHT22;43217;52.694;6.214;2023-01-10T15:51:02;6.80;99.90
57390;DHT22;43217;52.694;6.214;2023-01-10T15:54:01;6.70;99.90
57390;DHT22;43217;52.694;6.214;2023-01-10T15:56:33;6.70;99.90
57390;DHT22;43217;52.694;6.214;2023-01-10T15:59:01;6.60;99.90
57390;DHT22;43217;52.694;6.214;2023-01-10T16:01:28;6.60;99.90
57390;DHT22;43217;52.694;6.214;2023-01-10T16:03:57;6.50;99.90
57390;DHT22;43217;52.694;6.214;2023-01-10T16:06:32;6.50;99.90
57390;DHT22;43217;52.694;6.214;2023-01-10T16:09:00;6.50;99.90
57390;DHT22;43217;52.694;6.214;2023-01-10T16:11:45;6.40;99.90
57390;DHT22;43217;52.694;6.214;2023-01-10T16:14:30;6.40;99.90
57390;DHT22;43217;52.694;6.214;2023-01-10T16:16:58;6.40;99.90
57390;DHT22;43217;52.694;6.214;2023-01-10T16:19:23;6.40;99.90
57390;DHT22;43217;52.694;6.214;2023-01-10T16:21:51;6.30;99.90
57390;DHT22;43217;52.694;6.214;2023-01-10T16:24:24;6.30;99.90
57390;DHT22;43217;52.694;6.214;2023-01-10T16:26:50;6.30;99.90
57390;DHT22;43217;52.694;6.214;2023-01-10T16:29:17;6.30;99.90
57390;DHT22;43217;52.694;6.214;2023-01-10T16:31:45;6.30;99.90
57390;DHT22;43217;52.694;6.214;2023-01-10T16:34:11;6.30;99.90
57390;DHT22;43217;52.694;6.214;2023-01-10T16:36:36;6.30;99.90
57390;DHT22;43217;52.694;6.214;2023-01-10T16:39:15;6.30;99.90
57390;DHT22;43217;52.694;6.214;2023-01-10T16:41:42;6.30;99.90
57390;DHT22;43217;52.694;6.214;2023-01-10T16:44:27;6.30;99.90
57390;DHT22;43217;52.694;6.214;2023-01-10T16:46:52;6.30;99.90
57390;DHT22;43217;52.694;6.214;2023-01-10T16:49:19;6.30;99.90
57390;DHT22;43217;52.694;6.214;2023-01-10T16:51:45;6.40;99.90
57390;DHT22;43217;52.694;6.214;2023-01-10T16:54:13;6.40;99.90
57390;DHT22;43217;52.694;6.214;2023-01-10T16:56:40;6.40;99.90
57390;DHT22;43217;52.694;6.214;2023-01-10T16:59:06;6.40;99.90
57390;DHT22;43217;52.694;6.214;2023-01-10T17:01:38;6.40;99.90
57390;DHT22;43217;52.694;6.214;2023-01-10T17:04:06;6.40;99.90
57390;DHT22;43217;52.694;6.214;2023-01-10T17:06:33;6.40;99.90
57390;DHT22;43217;52.694;6.214;2023-01-10T17:09:00;6.40;99.90
57390;DHT22;43217;52.694;6.214;2023-01-10T17:11:28;6.40;99.90
57390;DHT22;43217;52.694;6.214;2023-01-10T17:13:55;6.30;99.90
57390;DHT22;43217;52.694;6.214;2023-01-10T17:16:22;6.30;99.90
57390;DHT22;43217;52.694;6.214;2023-01-10T17:18:47;6.30;99.90
57390;DHT22;43217;52.694;6.214;2023-01-10T17:21:15;6.30;99.90
57390;DHT22;43217;52.694;6.214;2023-01-10T17:23:41;6.30;99.90
57390;DHT22;43217;52.694;6.214;2023-01-10T17:26:08;6.30;99.90
57390;DHT22;43217;52.694;6.214;2023-01-10T17:28:34;6.30;99.90
57390;DHT22;43217;52.694;6.214;2023-01-10T17:30:59;6.20;99.90
57390;DHT22;43217;52.694;6.214;2023-01-10T17:33:26;6.20;99.90
57390;DHT22;43217;52.694;6.214;2023-01-10T17:35:55;6.20;99.90